Latest Weather Observations for Fawkner Beacon

IDV60901

Issued at 2:21 pm EST Monday 25 July 2016 (issued every 10 minutes, with the page automatically refreshed every 10 minutes)

About weather observations | Map of Melbourne area stations | Latest observations for Melbourne area | Other Formats
Station Details ID: 086376 Name: FAWKNER BEACON Lat: -37.91 Lon: 144.93 Height: 17.0 m
Data from the previous 72 hours. | See also: Recent months for locations in Victoria
Date/Time
EST
Temp
°C
App
Temp
°C
Dew
Point
°C
Rel
Hum
%
Delta-T
°C
Wind Press
QNH
hPa
Press
MSL
hPa
Rain since
9am
mm
Dir  Spd
km/h
Gust
km/h
Spd
kts
Gust
kts
25/02:00pm - - - - - NNW 39 50 21 27 - - -
25/01:30pm - - - - - NNW 28 43 15 23 - - -
25/01:00pm - - - - - NW 39 48 21 26 - - -
25/12:30pm - - - - - NW 41 48 22 26 - - -
25/12:00pm - - - - - NW 41 48 22 26 - - -
25/11:30am - - - - - NW 39 50 21 27 - - -
25/11:00am - - - - - NW 39 46 21 25 - - -
25/10:30am - - - - - NW 41 46 22 25 - - -
25/10:00am - - - - - WNW 32 41 17 22 - - -
25/09:30am - - - - - NW 33 43 18 23 - - -
25/09:00am - - - - - NW 35 43 19 23 - - -
25/08:30am - - - - - NW 39 50 21 27 - - -
25/08:00am - - - - - NW 41 48 22 26 - - -
25/07:30am - - - - - NNW 32 39 17 21 - - -
25/07:00am - - - - - N 28 33 15 18 - - -
25/06:30am - - - - - N 28 33 15 18 - - -
25/06:00am - - - - - NNW 30 35 16 19 - - -
25/05:30am - - - - - N 30 33 16 18 - - -
25/05:00am - - - - - NNW 32 35 17 19 - - -
25/04:30am - - - - - N 33 39 18 21 - - -
25/04:00am - - - - - N 32 43 17 23 - - -
25/03:30am - - - - - N 35 43 19 23 - - -
25/03:00am - - - - - N 35 41 19 22 - - -
25/02:30am - - - - - N 33 41 18 22 - - -
25/02:00am - - - - - N 33 41 18 22 - - -
25/01:30am - - - - - N 32 39 17 21 - - -
25/01:00am - - - - - N 33 41 18 22 - - -
25/12:30am - - - - - N 33 41 18 22 - - -
25/12:00am - - - - - N 33 41 18 22 - - -
 
Date/Time
EST
Temp
°C
App
Temp
°C
Dew
Point
°C
Rel
Hum
%
Delta-T
°C
Wind Press
QNH
hPa
Press
MSL
hPa
Rain since
9am
mm
Dir  Spd
km/h
Gust
km/h
Spd
kts
Gust
kts
24/11:30pm - - - - - N 33 39 18 21 - - -
24/11:00pm - - - - - N 32 35 17 19 - - -
24/10:30pm - - - - - N 32 39 17 21 - - -
24/10:00pm - - - - - N 33 39 18 21 - - -
24/09:30pm - - - - - N 39 44 21 24 - - -
24/09:00pm - - - - - N 41 48 22 26 - - -
24/08:30pm - - - - - N 43 52 23 28 - - -
24/08:00pm - - - - - N 43 50 23 27 - - -
24/07:30pm - - - - - N 35 44 19 24 - - -
24/07:00pm - - - - - N 39 50 21 27 - - -
24/06:30pm - - - - - N 39 48 21 26 - - -
24/06:00pm - - - - - N 43 50 23 27 - - -
24/05:30pm - - - - - N 41 48 22 26 - - -
24/05:00pm - - - - - N 39 46 21 25 - - -
24/04:30pm - - - - - N 39 46 21 25 - - -
24/04:00pm - - - - - N 39 46 21 25 - - -
24/03:30pm - - - - - N 39 44 21 24 - - -
24/03:00pm - - - - - N 39 46 21 25 - - -
24/02:30pm - - - - - N 43 50 23 27 - - -
24/02:00pm - - - - - N 44 52 24 28 - - -
24/01:30pm - - - - - N 44 52 24 28 - - -
24/01:00pm - - - - - N 46 54 25 29 - - -
24/12:30pm - - - - - N 44 54 24 29 - - -
24/12:00pm - - - - - N 44 52 24 28 - - -
24/11:30am - - - - - N 44 50 24 27 - - -
24/11:00am - - - - - N 39 46 21 25 - - -
24/10:30am - - - - - N 32 41 17 22 - - -
24/10:00am - - - - - N 28 33 15 18 - - -
24/09:30am - - - - - N 32 35 17 19 - - -
24/09:00am - - - - - N 32 39 17 21 - - -
24/08:30am - - - - - N 26 32 14 17 - - -
24/08:00am - - - - - N 30 35 16 19 - - -
24/07:30am - - - - - N 28 39 15 21 - - -
24/07:00am - - - - - NNE 26 30 14 16 - - -
24/06:30am - - - - - N 28 32 15 17 - - -
24/06:00am - - - - - N 30 33 16 18 - - -
24/05:30am - - - - - N 30 33 16 18 - - -
24/05:00am - - - - - N 30 35 16 19 - - -
24/04:30am - - - - - N 33 41 18 22 - - -
24/04:00am - - - - - N 32 39 17 21 - - -
24/03:30am - - - - - NNW 28 33 15 18 - - -
24/03:00am - - - - - NNW 26 32 14 17 - - -
24/02:30am - - - - - NW 28 33 15 18 - - -
24/02:00am - - - - - NW 24 30 13 16 - - -
24/01:30am - - - - - NNW 20 24 11 13 - - -
24/01:00am - - - - - NW 24 28 13 15 - - -
24/12:30am - - - - - NW 22 26 12 14 - - -
24/12:00am - - - - - NW 26 32 14 17 - - -
 
Date/Time
EST
Temp
°C
App
Temp
°C
Dew
Point
°C
Rel
Hum
%
Delta-T
°C
Wind Press
QNH
hPa
Press
MSL
hPa
Rain since
9am
mm
Dir  Spd
km/h
Gust
km/h
Spd
kts
Gust
kts
23/11:30pm - - - - - WNW 26 30 14 16 - - -
23/11:00pm - - - - - NW 32 35 17 19 - - -
23/10:30pm - - - - - NW 28 32 15 17 - - -
23/10:00pm - - - - - WNW 32 41 17 22 - - -
23/09:30pm - - - - - WNW 33 41 18 22 - - -
23/09:00pm - - - - - WNW 32 39 17 21 - - -
23/08:30pm - - - - - WNW 39 46 21 25 - - -
23/08:00pm - - - - - WNW 33 41 18 22 - - -
23/07:30pm - - - - - WNW 37 46 20 25 - - -
23/07:00pm - - - - - WNW 37 44 20 24 - - -
23/06:30pm - - - - - W 30 35 16 19 - - -
23/06:00pm - - - - - W 35 44 19 24 - - -
23/05:30pm - - - - - W 35 46 19 25 - - -
23/05:00pm - - - - - W 39 46 21 25 - - -
23/04:30pm - - - - - W 35 46 19 25 - - -
23/04:00pm - - - - - W 37 43 20 23 - - -
23/03:30pm - - - - - W 37 44 20 24 - - -
23/03:03pm - - - - - W 50 69 27 37 - - -
23/03:00pm - - - - - W 50 69 27 37 - - -
23/02:55pm - - - - - W 43 69 23 37 - - -
23/02:54pm - - - - - W 41 67 22 36 - - -
23/02:30pm - - - - - W 43 57 23 31 - - -
23/02:11pm - - - - - WSW 33 52 18 28 - - -
23/02:00pm - - - - - W 35 44 19 24 - - -
23/01:30pm - - - - - W 50 61 27 33 - - -
23/01:00pm - - - - - W 43 52 23 28 - - -
23/12:30pm - - - - - W 43 52 23 28 - - -
23/12:09pm - - - - - WNW 39 57 21 31 - - -
23/12:00pm - - - - - W 37 44 20 24 - - -
23/11:30am - - - - - W 44 52 24 28 - - -
23/11:00am - - - - - W 44 54 24 29 - - -
23/10:30am - - - - - W 43 50 23 27 - - -
23/10:00am - - - - - W 50 59 27 32 - - -
23/09:30am - - - - - W 35 43 19 23 - - -
23/09:00am - - - - - WNW 35 43 19 23 - - -
23/08:30am - - - - - W 41 50 22 27 - - -
23/08:00am - - - - - W 39 48 21 26 - - -
23/07:30am - - - - - W 43 52 23 28 - - -
23/07:00am - - - - - W 50 63 27 34 - - -
23/06:30am - - - - - W 50 59 27 32 - - -
23/06:00am - - - - - W 57 72 31 39 - - -
23/05:30am - - - - - W 48 67 26 36 - - -
23/05:28am - - - - - W 46 67 25 36 - - -
23/05:00am - - - - - W 52 63 28 34 - - -
23/04:30am - - - - - W 50 63 27 34 - - -
23/04:00am - - - - - W 48 61 26 33 - - -
23/03:30am - - - - - W 50 61 27 33 - - -
23/03:00am - - - - - W 61 80 33 43 - - -
23/02:31am - - - - - W 65 83 35 45 - - -
23/02:30am - - - - - WNW 65 82 35 44 - - -
23/02:06am - - - - - WNW 59 78 32 42 - - -
23/02:00am - - - - - WNW 57 70 31 38 - - -
23/01:30am - - - - - NW 52 63 28 34 - - -
23/01:03am - - - - - NW 57 76 31 41 - - -
23/01:00am - - - - - NW 59 76 32 41 - - -
23/12:54am - - - - - NW 57 76 31 41 - - -
23/12:44am - - - - - NW 44 67 24 36 - - -
23/12:30am - - - - - NW 39 46 21 25 - - -
23/12:00am - - - - - WNW 44 54 24 29 - - -
 
Date/Time
EST
Temp
°C
App
Temp
°C
Dew
Point
°C
Rel
Hum
%
Delta-T
°C
Wind Press
QNH
hPa
Press
MSL
hPa
Rain since
9am
mm
Dir  Spd
km/h
Gust
km/h
Spd
kts
Gust
kts
22/11:30pm - - - - - WNW 54 78 29 42 - - -
22/11:28pm - - - - - WNW 50 78 27 42 - - -
22/11:26pm - - - - - W 46 78 25 42 - - -
22/11:21pm - - - - - W 35 54 19 29 - - -
22/11:00pm - - - - - WNW 32 39 17 21 - - -
22/10:30pm - - - - - WNW 37 46 20 25 - - -
22/10:09pm - - - - - WNW 35 43 19 23 - - -
22/10:00pm - - - - - NW 33 43 18 23 - - -
22/09:49pm - - - - - NNW 33 46 18 25 - - -
22/09:30pm - - - - - N 26 30 14 16 - - -
22/09:00pm - - - - - NNW 24 30 13 16 - - -
22/08:30pm - - - - - NNW 19 24 10 13 - - -
22/08:00pm - - - - - NW 15 17 8 9 - - -
22/07:30pm - - - - - NNW 15 20 8 11 - - -
22/07:00pm - - - - - WNW 26 30 14 16 - - -
22/06:30pm - - - - - NW 28 33 15 18 - - -
22/06:27pm - - - - - NW 28 33 15 18 - - -
22/06:00pm - - - - - W 37 46 20 25 - - -
22/05:30pm - - - - - WNW 30 35 16 19 - - -
22/05:00pm - - - - - NW 35 48 19 26 - - -
22/04:30pm - - - - - NW 33 41 18 22 - - -
22/04:00pm - - - - - NW 33 39 18 21 - - -
22/03:30pm - - - - - WNW 35 46 19 25 - - -
22/03:00pm - - - - - WNW 43 50 23 27 - - -
22/02:30pm - - - - - W 57 70 31 38 - - -

Latest Capital City Observations: Canberra | Sydney | Melbourne | Brisbane | Adelaide | Perth | Hobart | Darwin

Other Formats:

Comma delimited format used in spreadsheet applications
http://www.bom.gov.au/fwo/IDV60901/IDV60901.95872.axf

JavaScript Object Notation format (JSON) in row-major order
http://www.bom.gov.au/fwo/IDV60901/IDV60901.95872.json